sensor_id;sensor_type;location;lat;lon;timestamp;temperature;humidity
2973;DHT22;1496;51.404;7.232;2024-02-21T00:01:03;8.10;43.60
2973;DHT22;1496;51.404;7.232;2024-02-21T00:03:29;8.10;52.00
2973;DHT22;1496;51.404;7.232;2024-02-21T00:05:55;8.10;35.60
2973;DHT22;1496;51.404;7.232;2024-02-21T00:08:21;8.20;48.70
2973;DHT22;1496;51.404;7.232;2024-02-21T00:10:46;8.20;52.10
2973;DHT22;1496;51.404;7.232;2024-02-21T00:13:12;8.20;50.30
2973;DHT22;1496;51.404;7.232;2024-02-21T00:15:37;8.10;46.80
2973;DHT22;1496;51.404;7.232;2024-02-21T00:18:03;8.10;55.90
2973;DHT22;1496;51.404;7.232;2024-02-21T00:20:29;8.10;69.20
2973;DHT22;1496;51.404;7.232;2024-02-21T00:22:55;8.20;56.60
2973;DHT22;1496;51.404;7.232;2024-02-21T00:25:21;8.20;51.60
2973;DHT22;1496;51.404;7.232;2024-02-21T00:27:47;8.10;53.50
2973;DHT22;1496;51.404;7.232;2024-02-21T00:30:12;8.10;61.40
2973;DHT22;1496;51.404;7.232;2024-02-21T00:32:38;8.10;58.10
2973;DHT22;1496;51.404;7.232;2024-02-21T00:35:04;8.10;55.40
2973;DHT22;1496;51.404;7.232;2024-02-21T00:37:31;8.10;44.80
2973;DHT22;1496;51.404;7.232;2024-02-21T00:39:57;8.00;53.60
2973;DHT22;1496;51.404;7.232;2024-02-21T00:42:23;8.00;66.80
2973;DHT22;1496;51.404;7.232;2024-02-21T00:44:48;8.00;60.10
2973;DHT22;1496;51.404;7.232;2024-02-21T00:47:14;8.00;73.50
2973;DHT22;1496;51.404;7.232;2024-02-21T00:49:39;8.00;72.00
2973;DHT22;1496;51.404;7.232;2024-02-21T00:52:05;8.00;76.40
2973;DHT22;1496;51.404;7.232;2024-02-21T00:54:30;8.00;86.50
2973;DHT22;1496;51.404;7.232;2024-02-21T00:56:56;8.00;74.20
2973;DHT22;1496;51.404;7.232;2024-02-21T00:59:22;8.00;74.60
2973;DHT22;1496;51.404;7.232;2024-02-21T01:01:47;8.00;69.20
2973;DHT22;1496;51.404;7.232;2024-02-21T01:04:13;8.00;73.00
2973;DHT22;1496;51.404;7.232;2024-02-21T01:06:39;8.00;62.00
2973;DHT22;1496;51.404;7.232;2024-02-21T01:09:08;8.10;69.30
2973;DHT22;1496;51.404;7.232;2024-02-21T01:11:34;8.10;59.80
2973;DHT22;1496;51.404;7.232;2024-02-21T01:14:00;8.10;71.80
2973;DHT22;1496;51.404;7.232;2024-02-21T01:16:26;8.20;62.00
2973;DHT22;1496;51.404;7.232;2024-02-21T01:18:51;8.10;60.00
2973;DHT22;1496;51.404;7.232;2024-02-21T01:21:17;8.10;56.80
2973;DHT22;1496;51.404;7.232;2024-02-21T01:23:43;8.10;57.50
2973;DHT22;1496;51.404;7.232;2024-02-21T01:26:08;8.20;52.40
2973;DHT22;1496;51.404;7.232;2024-02-21T01:28:38;8.20;40.90
2973;DHT22;1496;51.404;7.232;2024-02-21T01:31:05;8.20;43.00
2973;DHT22;1496;51.404;7.232;2024-02-21T01:33:30;8.20;49.00
2973;DHT22;1496;51.404;7.232;2024-02-21T01:36:04;8.20;49.40
2973;DHT22;1496;51.404;7.232;2024-02-21T01:38:32;8.20;53.50
2973;DHT22;1496;51.404;7.232;2024-02-21T01:40:58;8.10;46.90
2973;DHT22;1496;51.404;7.232;2024-02-21T01:43:24;8.10;46.70
2973;DHT22;1496;51.404;7.232;2024-02-21T01:45:52;8.00;47.80
2973;DHT22;1496;51.404;7.232;2024-02-21T01:48:19;7.90;49.90
2973;DHT22;1496;51.404;7.232;2024-02-21T01:50:51;7.90;59.10
2973;DHT22;1496;51.404;7.232;2024-02-21T01:53:30;7.90;85.60
2973;DHT22;1496;51.404;7.232;2024-02-21T01:55:59;7.90;77.20
2973;DHT22;1496;51.404;7.232;2024-02-21T01:58:27;7.90;93.70
2973;DHT22;1496;51.404;7.232;2024-02-21T02:00:54;7.90;96.40
2973;DHT22;1496;51.404;7.232;2024-02-21T02:03:21;7.90;99.30
2973;DHT22;1496;51.404;7.232;2024-02-21T02:05:49;8.00;99.90
2973;DHT22;1496;51.404;7.232;2024-02-21T02:08:16;7.90;99.90
2973;DHT22;1496;51.404;7.232;2024-02-21T02:10:42;7.90;99.90
2973;DHT22;1496;51.404;7.232;2024-02-21T02:13:08;8.00;99.90
2973;DHT22;1496;51.404;7.232;2024-02-21T02:15:41;8.00;93.50
2973;DHT22;1496;51.404;7.232;2024-02-21T02:18:07;8.10;91.90
2973;DHT22;1496;51.404;7.232;2024-02-21T02:20:33;8.10;82.40
2973;DHT22;1496;51.404;7.232;2024-02-21T02:23:11;8.20;65.20
2973;DHT22;1496;51.404;7.232;2024-02-21T02:25:37;8.10;65.90
2973;DHT22;1496;51.404;7.232;2024-02-21T02:28:07;8.10;78.10
2973;DHT22;1496;51.404;7.232;2024-02-21T02:30:36;8.10;76.90
2973;DHT22;1496;51.404;7.232;2024-02-21T02:33:03;8.10;73.60
2973;DHT22;1496;51.404;7.232;2024-02-21T02:35:29;8.10;80.90
2973;DHT22;1496;51.404;7.232;2024-02-21T02:37:54;8.00;71.40
2973;DHT22;1496;51.404;7.232;2024-02-21T02:40:20;7.90;88.50
2973;DHT22;1496;51.404;7.232;2024-02-21T02:42:45;7.90;99.90
2973;DHT22;1496;51.404;7.232;2024-02-21T02:45:12;7.80;99.90
2973;DHT22;1496;51.404;7.232;2024-02-21T02:47:39;7.80;99.90
2973;DHT22;1496;51.404;7.232;2024-02-21T02:50:06;7.80;99.90
2973;DHT22;1496;51.404;7.232;2024-02-21T02:52:32;7.80;99.90
2973;DHT22;1496;51.404;7.232;2024-02-21T02:54:57;7.70;99.90
2973;DHT22;1496;51.404;7.232;2024-02-21T02:57:23;7.80;99.90
2973;DHT22;1496;51.404;7.232;2024-02-21T02:59:50;7.80;99.90
2973;DHT22;1496;51.404;7.232;2024-02-21T03:02:16;7.80;99.90
2973;DHT22;1496;51.404;7.232;2024-02-21T03:04:41;7.90;99.90
2973;DHT22;1496;51.404;7.232;2024-02-21T03:07:07;7.90;99.90
2973;DHT22;1496;51.404;7.232;2024-02-21T03:09:33;7.80;99.30
2973;DHT22;1496;51.404;7.232;2024-02-21T03:11:58;7.80;99.90
2973;DHT22;1496;51.404;7.232;2024-02-21T03:14:28;7.80;96.50
2973;DHT22;1496;51.404;7.232;2024-02-21T03:16:54;7.90;86.90
2973;DHT22;1496;51.404;7.232;2024-02-21T03:19:20;7.90;77.30
2973;DHT22;1496;51.404;7.232;2024-02-21T03:21:46;7.90;80.90
2973;DHT22;1496;51.404;7.232;2024-02-21T03:24:11;7.90;75.10
2973;DHT22;1496;51.404;7.232;2024-02-21T03:26:37;7.80;58.30
2973;DHT22;1496;51.404;7.232;2024-02-21T03:29:03;7.80;51.70
2973;DHT22;1496;51.404;7.232;2024-02-21T03:31:29;7.80;56.30
2973;DHT22;1496;51.404;7.232;2024-02-21T03:33:55;7.80;50.00
2973;DHT22;1496;51.404;7.232;2024-02-21T03:36:21;7.80;65.40
2973;DHT22;1496;51.404;7.232;2024-02-21T03:38:46;7.80;71.90
2973;DHT22;1496;51.404;7.232;2024-02-21T03:41:13;7.80;67.90
2973;DHT22;1496;51.404;7.232;2024-02-21T03:43:38;7.80;59.20
2973;DHT22;1496;51.404;7.232;2024-02-21T03:46:05;7.80;59.50
2973;DHT22;1496;51.404;7.232;2024-02-21T03:48:30;7.80;66.40
2973;DHT22;1496;51.404;7.232;2024-02-21T03:50:56;7.80;58.70
2973;DHT22;1496;51.404;7.232;2024-02-21T03:53:22;7.80;53.70
2973;DHT22;1496;51.404;7.232;2024-02-21T03:55:47;7.80;49.40
2973;DHT22;1496;51.404;7.232;2024-02-21T03:58:13;7.90;59.40
2973;DHT22;1496;51.404;7.232;2024-02-21T04:00:38;7.90;50.10
2973;DHT22;1496;51.404;7.232;2024-02-21T04:03:04;8.00;46.30
2973;DHT22;1496;51.404;7.232;2024-02-21T04:05:30;8.00;33.00
2973;DHT22;1496;51.404;7.232;2024-02-21T04:07:55;8.00;32.20
2973;DHT22;1496;51.404;7.232;2024-02-21T04:10:21;8.00;29.50
2973;DHT22;1496;51.404;7.232;2024-02-21T04:12:47;8.00;33.50
2973;DHT22;1496;51.404;7.232;2024-02-21T04:15:16;8.00;30.90
2973;DHT22;1496;51.404;7.232;2024-02-21T04:17:41;8.00;28.20
2973;DHT22;1496;51.404;7.232;2024-02-21T04:20:14;8.00;40.10
2973;DHT22;1496;51.404;7.232;2024-02-21T04:22:40;8.00;24.80
2973;DHT22;1496;51.404;7.232;2024-02-21T04:25:06;8.10;21.90
2973;DHT22;1496;51.404;7.232;2024-02-21T04:27:32;8.10;21.10
2973;DHT22;1496;51.404;7.232;2024-02-21T04:29:57;8.00;21.20
2973;DHT22;1496;51.404;7.232;2024-02-21T04:32:23;8.00;18.10
2973;DHT22;1496;51.404;7.232;2024-02-21T04:34:49;7.90;21.00
2973;DHT22;1496;51.404;7.232;2024-02-21T04:37:15;7.90;24.60
2973;DHT22;1496;51.404;7.232;2024-02-21T04:39:41;7.80;29.50
2973;DHT22;1496;51.404;7.232;2024-02-21T04:42:07;7.80;27.50
2973;DHT22;1496;51.404;7.232;2024-02-21T04:44:32;7.80;29.10
2973;DHT22;1496;51.404;7.232;2024-02-21T04:46:58;7.90;26.10
2973;DHT22;1496;51.404;7.232;2024-02-21T04:49:23;7.90;24.70
2973;DHT22;1496;51.404;7.232;2024-02-21T04:51:49;7.90;25.10
2973;DHT22;1496;51.404;7.232;2024-02-21T04:54:15;8.00;25.70
2973;DHT22;1496;51.404;7.232;2024-02-21T04:56:40;7.90;31.90
2973;DHT22;1496;51.404;7.232;2024-02-21T04:59:06;7.90;33.80
2973;DHT22;1496;51.404;7.232;2024-02-21T05:01:31;7.90;24.50
2973;DHT22;1496;51.404;7.232;2024-02-21T05:03:57;8.00;24.50
2973;DHT22;1496;51.404;7.232;2024-02-21T05:06:23;8.00;27.00
2973;DHT22;1496;51.404;7.232;2024-02-21T05:08:49;8.00;20.10
2973;DHT22;1496;51.404;7.232;2024-02-21T05:11:15;8.00;16.00
2973;DHT22;1496;51.404;7.232;2024-02-21T05:13:41;8.10;1.00
2973;DHT22;1496;51.404;7.232;2024-02-21T05:16:06;8.10;1.00
2973;DHT22;1496;51.404;7.232;2024-02-21T05:18:33;8.10;1.00
2973;DHT22;1496;51.404;7.232;2024-02-21T05:20:59;8.10;1.00
2973;DHT22;1496;51.404;7.232;2024-02-21T05:23:25;8.10;1.00
2973;DHT22;1496;51.404;7.232;2024-02-21T05:25:51;8.10;1.00
2973;DHT22;1496;51.404;7.232;2024-02-21T05:28:16;8.10;1.00
2973;DHT22;1496;51.404;7.232;2024-02-21T05:30:42;8.10;1.00
2973;DHT22;1496;51.404;7.232;2024-02-21T05:33:08;8.10;1.00
2973;DHT22;1496;51.404;7.232;2024-02-21T05:35:35;8.00;1.00
2973;DHT22;1496;51.404;7.232;2024-02-21T05:38:01;7.90;1.00
2973;DHT22;1496;51.404;7.232;2024-02-21T05:40:29;7.90;1.00
2973;DHT22;1496;51.404;7.232;2024-02-21T05:42:55;7.80;1.20
2973;DHT22;1496;51.404;7.232;2024-02-21T05:45:21;7.80;1.00
2973;DHT22;1496;51.404;7.232;2024-02-21T05:47:46;7.80;4.10
2973;DHT22;1496;51.404;7.232;2024-02-21T05:50:12;7.80;5.90
2973;DHT22;1496;51.404;7.232;2024-02-21T05:52:37;7.80;9.10
2973;DHT22;1496;51.404;7.232;2024-02-21T05:55:03;7.90;5.10
2973;DHT22;1496;51.404;7.232;2024-02-21T05:57:29;7.90;1.00
2973;DHT22;1496;51.404;7.232;2024-02-21T05:59:55;7.90;1.00
2973;DHT22;1496;51.404;7.232;2024-02-21T06:02:20;7.90;1.00
2973;DHT22;1496;51.404;7.232;2024-02-21T06:04:46;7.90;3.30
2973;DHT22;1496;51.404;7.232;2024-02-21T06:07:12;7.90;1.00
2973;DHT22;1496;51.404;7.232;2024-02-21T06:09:38;7.90;1.00
2973;DHT22;1496;51.404;7.232;2024-02-21T06:12:04;8.00;1.00
2973;DHT22;1496;51.404;7.232;2024-02-21T06:14:30;7.90;1.40
2973;DHT22;1496;51.404;7.232;2024-02-21T06:16:55;8.00;1.00
2973;DHT22;1496;51.404;7.232;2024-02-21T06:19:21;8.00;1.00
2973;DHT22;1496;51.404;7.232;2024-02-21T06:21:46;8.00;1.00
2973;DHT22;1496;51.404;7.232;2024-02-21T06:24:12;8.00;1.00
2973;DHT22;1496;51.404;7.232;2024-02-21T06:26:39;8.00;1.00
2973;DHT22;1496;51.404;7.232;2024-02-21T06:29:05;8.00;1.00
2973;DHT22;1496;51.404;7.232;2024-02-21T06:31:31;8.00;1.00
2973;DHT22;1496;51.404;7.232;2024-02-21T06:33:57;8.00;1.00
2973;DHT22;1496;51.404;7.232;2024-02-21T06:36:23;8.00;1.00
2973;DHT22;1496;51.404;7.232;2024-02-21T06:38:48;8.00;1.00
2973;DHT22;1496;51.404;7.232;2024-02-21T06:41:16;8.00;1.00
2973;DHT22;1496;51.404;7.232;2024-02-21T06:43:42;8.00;1.00
2973;DHT22;1496;51.404;7.232;2024-02-21T06:46:07;7.90;1.00
2973;DHT22;1496;51.404;7.232;2024-02-21T06:48:33;7.90;1.00
2973;DHT22;1496;51.404;7.232;2024-02-21T06:50:58;7.90;1.00
2973;DHT22;1496;51.404;7.232;2024-02-21T06:53:24;7.90;1.00
2973;DHT22;1496;51.404;7.232;2024-02-21T06:55:50;7.90;1.00
2973;DHT22;1496;51.404;7.232;2024-02-21T06:58:15;7.90;1.00
2973;DHT22;1496;51.404;7.232;2024-02-21T07:00:42;8.00;1.00
2973;DHT22;1496;51.404;7.232;2024-02-21T07:03:08;8.00;1.00
2973;DHT22;1496;51.404;7.232;2024-02-21T07:05:33;7.90;1.00
2973;DHT22;1496;51.404;7.232;2024-02-21T07:07:59;7.90;1.00
2973;DHT22;1496;51.404;7.232;2024-02-21T07:10:25;7.90;1.00
2973;DHT22;1496;51.404;7.232;2024-02-21T07:12:50;7.90;1.00
2973;DHT22;1496;51.404;7.232;2024-02-21T07:15:17;7.90;1.00
2973;DHT22;1496;51.404;7.232;2024-02-21T07:17:43;7.90;1.00
2973;DHT22;1496;51.404;7.232;2024-02-21T07:20:09;7.90;1.00
2973;DHT22;1496;51.404;7.232;2024-02-21T07:22:34;8.00;1.00
2973;DHT22;1496;51.404;7.232;2024-02-21T07:25:00;8.00;1.00
2973;DHT22;1496;51.404;7.232;2024-02-21T07:27:26;8.10;1.00
2973;DHT22;1496;51.404;7.232;2024-02-21T07:29:56;8.10;1.00
2973;DHT22;1496;51.404;7.232;2024-02-21T07:32:22;8.20;1.00
2973;DHT22;1496;51.404;7.232;2024-02-21T07:34:47;8.20;1.00
2973;DHT22;1496;51.404;7.232;2024-02-21T07:37:13;8.20;1.00
2973;DHT22;1496;51.404;7.232;2024-02-21T07:39:39;8.20;1.00
2973;DHT22;1496;51.404;7.232;2024-02-21T07:42:04;8.20;1.00
2973;DHT22;1496;51.404;7.232;2024-02-21T07:44:32;8.20;1.00
2973;DHT22;1496;51.404;7.232;2024-02-21T07:46:58;8.30;1.00
2973;DHT22;1496;51.404;7.232;2024-02-21T07:49:24;8.30;1.00
2973;DHT22;1496;51.404;7.232;2024-02-21T07:51:50;8.30;1.00
2973;DHT22;1496;51.404;7.232;2024-02-21T07:54:16;8.30;1.00
2973;DHT22;1496;51.404;7.232;2024-02-21T07:56:41;8.40;1.00
2973;DHT22;1496;51.404;7.232;2024-02-21T07:59:07;8.40;1.00
2973;DHT22;1496;51.404;7.232;2024-02-21T08:01:33;8.30;1.00
2973;DHT22;1496;51.404;7.232;2024-02-21T08:03:59;8.20;1.00
2973;DHT22;1496;51.404;7.232;2024-02-21T08:06:24;8.20;1.00
2973;DHT22;1496;51.404;7.232;2024-02-21T08:08:50;8.20;1.00
2973;DHT22;1496;51.404;7.232;2024-02-21T08:11:16;8.20;1.00
2973;DHT22;1496;51.404;7.232;2024-02-21T08:13:41;8.10;1.00
2973;DHT22;1496;51.404;7.232;2024-02-21T08:16:07;8.20;1.00
2973;DHT22;1496;51.404;7.232;2024-02-21T08:18:33;8.30;1.00
2973;DHT22;1496;51.404;7.232;2024-02-21T08:21:03;8.30;1.00
2973;DHT22;1496;51.404;7.232;2024-02-21T08:23:29;8.30;1.00
2973;DHT22;1496;51.404;7.232;2024-02-21T08:25:54;8.30;1.00
2973;DHT22;1496;51.404;7.232;2024-02-21T08:28:20;8.40;1.00
2973;DHT22;1496;51.404;7.232;2024-02-21T08:30:46;8.40;1.00
2973;DHT22;1496;51.404;7.232;2024-02-21T08:33:15;8.30;1.00
2973;DHT22;1496;51.404;7.232;2024-02-21T08:35:45;8.40;1.00
2973;DHT22;1496;51.404;7.232;2024-02-21T08:38:11;8.40;1.00
2973;DHT22;1496;51.404;7.232;2024-02-21T08:40:36;8.40;1.00
2973;DHT22;1496;51.404;7.232;2024-02-21T08:43:02;8.40;1.00
2973;DHT22;1496;51.404;7.232;2024-02-21T08:45:29;8.40;1.00
2973;DHT22;1496;51.404;7.232;2024-02-21T08:47:54;8.40;1.00
2973;DHT22;1496;51.404;7.232;2024-02-21T08:50:20;8.40;1.00
2973;DHT22;1496;51.404;7.232;2024-02-21T08:52:46;8.40;1.00
2973;DHT22;1496;51.404;7.232;2024-02-21T08:55:11;8.40;1.00
2973;DHT22;1496;51.404;7.232;2024-02-21T08:57:37;8.40;1.00
2973;DHT22;1496;51.404;7.232;2024-02-21T09:00:06;8.30;1.00
2973;DHT22;1496;51.404;7.232;2024-02-21T09:02:41;8.30;1.00
2973;DHT22;1496;51.404;7.232;2024-02-21T09:05:10;8.20;1.00
2973;DHT22;1496;51.404;7.232;2024-02-21T09:07:36;8.20;1.00
2973;DHT22;1496;51.404;7.232;2024-02-21T09:10:02;8.10;1.00
2973;DHT22;1496;51.404;7.232;2024-02-21T09:12:28;7.90;1.00
2973;DHT22;1496;51.404;7.232;2024-02-21T09:14:54;7.90;3.30
2973;DHT22;1496;51.404;7.232;2024-02-21T09:17:20;8.00;16.90
2973;DHT22;1496;51.404;7.232;2024-02-21T09:19:47;8.00;8.70
2973;DHT22;1496;51.404;7.232;2024-02-21T09:22:13;8.00;21.40
2973;DHT22;1496;51.404;7.232;2024-02-21T09:24:39;8.00;18.80
2973;DHT22;1496;51.404;7.232;2024-02-21T09:27:05;8.00;30.00
2973;DHT22;1496;51.404;7.232;2024-02-21T09:29:31;8.00;35.70
2973;DHT22;1496;51.404;7.232;2024-02-21T09:31:59;8.00;37.80
2973;DHT22;1496;51.404;7.232;2024-02-21T09:34:25;7.90;32.00
2973;DHT22;1496;51.404;7.232;2024-02-21T09:36:50;8.00;27.10
2973;DHT22;1496;51.404;7.232;2024-02-21T09:39:16;8.00;26.30
2973;DHT22;1496;51.404;7.232;2024-02-21T09:41:50;8.00;44.00
2973;DHT22;1496;51.404;7.232;2024-02-21T09:44:21;8.10;41.50
2973;DHT22;1496;51.404;7.232;2024-02-21T09:47:02;8.10;47.30
2973;DHT22;1496;51.404;7.232;2024-02-21T09:49:31;8.10;36.30
2973;DHT22;1496;51.404;7.232;2024-02-21T09:52:02;8.20;31.10
2973;DHT22;1496;51.404;7.232;2024-02-21T09:54:29;8.20;24.00
2973;DHT22;1496;51.404;7.232;2024-02-21T09:56:59;8.10;20.60
2973;DHT22;1496;51.404;7.232;2024-02-21T09:59:24;8.10;16.60
2973;DHT22;1496;51.404;7.232;2024-02-21T10:01:51;8.00;17.10
2973;DHT22;1496;51.404;7.232;2024-02-21T10:04:17;8.00;10.50
2973;DHT22;1496;51.404;7.232;2024-02-21T10:06:44;8.00;23.00
2973;DHT22;1496;51.404;7.232;2024-02-21T10:09:20;8.00;10.50
2973;DHT22;1496;51.404;7.232;2024-02-21T10:11:46;8.00;6.40
2973;DHT22;1496;51.404;7.232;2024-02-21T10:14:12;8.00;7.50
2973;DHT22;1496;51.404;7.232;2024-02-21T10:16:37;8.00;7.70
2973;DHT22;1496;51.404;7.232;2024-02-21T10:19:03;8.00;1.20
2973;DHT22;1496;51.404;7.232;2024-02-21T10:21:28;8.00;1.00
2973;DHT22;1496;51.404;7.232;2024-02-21T10:23:55;8.00;1.00
2973;DHT22;1496;51.404;7.232;2024-02-21T10:26:22;8.00;1.00
2973;DHT22;1496;51.404;7.232;2024-02-21T10:28:48;8.10;1.00
2973;DHT22;1496;51.404;7.232;2024-02-21T10:31:27;8.30;1.00
2973;DHT22;1496;51.404;7.232;2024-02-21T10:34:00;8.30;1.00
2973;DHT22;1496;51.404;7.232;2024-02-21T10:36:28;8.40;1.00
2973;DHT22;1496;51.404;7.232;2024-02-21T10:38:55;8.40;1.00
2973;DHT22;1496;51.404;7.232;2024-02-21T10:41:21;8.60;1.00
2973;DHT22;1496;51.404;7.232;2024-02-21T10:43:50;8.70;1.00
2973;DHT22;1496;51.404;7.232;2024-02-21T10:46:22;8.70;1.00
2973;DHT22;1496;51.404;7.232;2024-02-21T10:49:01;8.90;1.00
2973;DHT22;1496;51.404;7.232;2024-02-21T10:51:33;8.80;1.00
2973;DHT22;1496;51.404;7.232;2024-02-21T10:54:10;8.80;1.00
2973;DHT22;1496;51.404;7.232;2024-02-21T10:56:39;8.80;1.00
2973;DHT22;1496;51.404;7.232;2024-02-21T10:59:07;8.80;1.00
2973;DHT22;1496;51.404;7.232;2024-02-21T11:01:33;8.90;1.00
2973;DHT22;1496;51.404;7.232;2024-02-21T11:04:06;8.90;1.00
2973;DHT22;1496;51.404;7.232;2024-02-21T11:06:33;8.90;1.00
2973;DHT22;1496;51.404;7.232;2024-02-21T11:09:05;8.90;1.00
2973;DHT22;1496;51.404;7.232;2024-02-21T11:11:35;8.90;1.00
2973;DHT22;1496;51.404;7.232;2024-02-21T11:14:11;8.90;1.00
2973;DHT22;1496;51.404;7.232;2024-02-21T11:16:43;8.90;1.00
2973;DHT22;1496;51.404;7.232;2024-02-21T11:19:18;9.00;1.00
2973;DHT22;1496;51.404;7.232;2024-02-21T11:21:44;9.00;1.00
2973;DHT22;1496;51.404;7.232;2024-02-21T11:24:09;9.20;1.00
2973;DHT22;1496;51.404;7.232;2024-02-21T11:26:37;9.40;1.00
2973;DHT22;1496;51.404;7.232;2024-02-21T11:29:03;9.40;1.00
2973;DHT22;1496;51.404;7.232;2024-02-21T11:31:43;9.50;1.00
2973;DHT22;1496;51.404;7.232;2024-02-21T11:34:10;9.50;1.00
2973;DHT22;1496;51.404;7.232;2024-02-21T11:36:36;9.50;1.00
2973;DHT22;1496;51.404;7.232;2024-02-21T11:39:11;9.50;1.00
2973;DHT22;1496;51.404;7.232;2024-02-21T11:41:37;9.60;1.00
2973;DHT22;1496;51.404;7.232;2024-02-21T11:44:03;9.70;1.00
2973;DHT22;1496;51.404;7.232;2024-02-21T11:46:29;9.80;1.00
2973;DHT22;1496;51.404;7.232;2024-02-21T11:48:55;9.80;1.00
2973;DHT22;1496;51.404;7.232;2024-02-21T11:51:30;9.90;1.00
2973;DHT22;1496;51.404;7.232;2024-02-21T11:53:56;9.80;1.00
2973;DHT22;1496;51.404;7.232;2024-02-21T11:56:23;9.80;1.00
2973;DHT22;1496;51.404;7.232;2024-02-21T11:58:49;9.70;1.00
2973;DHT22;1496;51.404;7.232;2024-02-21T12:01:14;9.60;1.00
2973;DHT22;1496;51.404;7.232;2024-02-21T12:03:42;9.60;1.00
2973;DHT22;1496;51.404;7.232;2024-02-21T12:06:07;9.60;1.00
2973;DHT22;1496;51.404;7.232;2024-02-21T12:08:43;9.60;1.00
2973;DHT22;1496;51.404;7.232;2024-02-21T12:11:21;9.60;1.00
2973;DHT22;1496;51.404;7.232;2024-02-21T12:14:02;9.60;1.00
2973;DHT22;1496;51.404;7.232;2024-02-21T12:16:32;9.60;1.00
2973;DHT22;1496;51.404;7.232;2024-02-21T12:18:59;9.70;1.00
2973;DHT22;1496;51.404;7.232;2024-02-21T12:21:32;9.70;1.00
2973;DHT22;1496;51.404;7.232;2024-02-21T12:24:00;9.70;1.00
2973;DHT22;1496;51.404;7.232;2024-02-21T12:26:26;9.60;1.00
2973;DHT22;1496;51.404;7.232;2024-02-21T12:28:53;9.70;1.00
2973;DHT22;1496;51.404;7.232;2024-02-21T12:31:19;9.70;1.00
2973;DHT22;1496;51.404;7.232;2024-02-21T12:33:44;9.70;1.00
2973;DHT22;1496;51.404;7.232;2024-02-21T12:36:10;9.70;1.00
2973;DHT22;1496;51.404;7.232;2024-02-21T12:38:36;9.80;1.00
2973;DHT22;1496;51.404;7.232;2024-02-21T12:41:02;9.80;1.00
2973;DHT22;1496;51.404;7.232;2024-02-21T12:43:28;9.80;1.00
2973;DHT22;1496;51.404;7.232;2024-02-21T12:45:54;9.90;1.00
2973;DHT22;1496;51.404;7.232;2024-02-21T12:48:20;9.90;1.00
2973;DHT22;1496;51.404;7.232;2024-02-21T12:50:49;10.00;1.00
2973;DHT22;1496;51.404;7.232;2024-02-21T12:53:19;10.10;1.00
2973;DHT22;1496;51.404;7.232;2024-02-21T12:55:50;10.10;1.00
2973;DHT22;1496;51.404;7.232;2024-02-21T12:58:16;10.20;1.00
2973;DHT22;1496;51.404;7.232;2024-02-21T13:00:42;10.30;1.00
2973;DHT22;1496;51.404;7.232;2024-02-21T13:03:08;10.30;1.00
2973;DHT22;1496;51.404;7.232;2024-02-21T13:05:37;10.30;1.00
2973;DHT22;1496;51.404;7.232;2024-02-21T13:08:08;10.20;1.00
2973;DHT22;1496;51.404;7.232;2024-02-21T13:10:34;10.20;1.00
2973;DHT22;1496;51.404;7.232;2024-02-21T13:13:03;10.30;1.00
2973;DHT22;1496;51.404;7.232;2024-02-21T13:15:29;10.20;1.00
2973;DHT22;1496;51.404;7.232;2024-02-21T13:17:56;10.20;1.00
2973;DHT22;1496;51.404;7.232;2024-02-21T13:20:23;10.20;1.00
2973;DHT22;1496;51.404;7.232;2024-02-21T13:22:48;10.20;1.00
2973;DHT22;1496;51.404;7.232;2024-02-21T13:25:14;10.20;1.00
2973;DHT22;1496;51.404;7.232;2024-02-21T13:27:44;10.20;1.00
2973;DHT22;1496;51.404;7.232;2024-02-21T13:30:10;10.30;1.00
2973;DHT22;1496;51.404;7.232;2024-02-21T13:32:36;10.40;1.00
2973;DHT22;1496;51.404;7.232;2024-02-21T13:35:03;10.20;1.00
2973;DHT22;1496;51.404;7.232;2024-02-21T13:37:28;10.30;1.00
2973;DHT22;1496;51.404;7.232;2024-02-21T13:39:54;10.30;1.00
2973;DHT22;1496;51.404;7.232;2024-02-21T13:42:20;10.30;1.00
2973;DHT22;1496;51.404;7.232;2024-02-21T13:44:46;10.20;1.00
2973;DHT22;1496;51.404;7.232;2024-02-21T13:47:14;10.20;1.00
2973;DHT22;1496;51.404;7.232;2024-02-21T13:49:40;10.40;1.00
2973;DHT22;1496;51.404;7.232;2024-02-21T13:52:05;10.40;1.00
2973;DHT22;1496;51.404;7.232;2024-02-21T13:54:31;10.40;1.00
2973;DHT22;1496;51.404;7.232;2024-02-21T13:56:57;10.40;1.00
2973;DHT22;1496;51.404;7.232;2024-02-21T13:59:23;10.40;1.00
2973;DHT22;1496;51.404;7.232;2024-02-21T14:01:48;10.40;1.00
2973;DHT22;1496;51.404;7.232;2024-02-21T14:04:14;10.40;1.00
2973;DHT22;1496;51.404;7.232;2024-02-21T14:06:40;10.40;1.00
2973;DHT22;1496;51.404;7.232;2024-02-21T14:09:11;10.40;1.00
2973;DHT22;1496;51.404;7.232;2024-02-21T14:11:37;10.40;1.00
2973;DHT22;1496;51.404;7.232;2024-02-21T14:14:07;10.40;1.00
2973;DHT22;1496;51.404;7.232;2024-02-21T14:16:33;10.40;1.00
2973;DHT22;1496;51.404;7.232;2024-02-21T14:18:59;10.30;1.00
2973;DHT22;1496;51.404;7.232;2024-02-21T14:21:25;10.30;1.00
2973;DHT22;1496;51.404;7.232;2024-02-21T14:23:51;10.30;1.00
2973;DHT22;1496;51.404;7.232;2024-02-21T14:26:18;10.30;1.00
2973;DHT22;1496;51.404;7.232;2024-02-21T14:28:44;10.20;1.00
2973;DHT22;1496;51.404;7.232;2024-02-21T14:31:11;10.10;1.00
2973;DHT22;1496;51.404;7.232;2024-02-21T14:33:37;10.10;1.00
2973;DHT22;1496;51.404;7.232;2024-02-21T14:36:03;10.10;1.00
2973;DHT22;1496;51.404;7.232;2024-02-21T14:38:29;10.10;1.00
2973;DHT22;1496;51.404;7.232;2024-02-21T14:40:54;10.20;1.00
2973;DHT22;1496;51.404;7.232;2024-02-21T14:43:20;10.20;1.00
2973;DHT22;1496;51.404;7.232;2024-02-21T14:45:49;10.20;1.00
2973;DHT22;1496;51.404;7.232;2024-02-21T14:48:15;10.20;1.00
2973;DHT22;1496;51.404;7.232;2024-02-21T14:50:41;10.10;1.00
2973;DHT22;1496;51.404;7.232;2024-02-21T14:53:08;10.10;1.00
2973;DHT22;1496;51.404;7.232;2024-02-21T14:55:34;10.10;1.00
2973;DHT22;1496;51.404;7.232;2024-02-21T14:58:00;10.20;1.00
2973;DHT22;1496;51.404;7.232;2024-02-21T15:00:26;10.20;1.00
2973;DHT22;1496;51.404;7.232;2024-02-21T15:02:58;10.20;1.00
2973;DHT22;1496;51.404;7.232;2024-02-21T15:05:24;10.20;1.00
2973;DHT22;1496;51.404;7.232;2024-02-21T15:07:50;10.20;1.00
2973;DHT22;1496;51.404;7.232;2024-02-21T15:10:16;10.20;1.00
2973;DHT22;1496;51.404;7.232;2024-02-21T15:12:46;10.20;1.00
2973;DHT22;1496;51.404;7.232;2024-02-21T15:15:13;10.20;1.00
2973;DHT22;1496;51.404;7.232;2024-02-21T15:17:39;10.20;1.00
2973;DHT22;1496;51.404;7.232;2024-02-21T15:20:06;10.20;1.00
2973;DHT22;1496;51.404;7.232;2024-02-21T15:22:33;10.20;1.00
2973;DHT22;1496;51.404;7.232;2024-02-21T15:24:59;10.10;1.00
2973;DHT22;1496;51.404;7.232;2024-02-21T15:27:30;10.10;1.00
2973;DHT22;1496;51.404;7.232;2024-02-21T15:29:56;10.10;1.00
2973;DHT22;1496;51.404;7.232;2024-02-21T15:32:23;10.10;1.00
2973;DHT22;1496;51.404;7.232;2024-02-21T15:34:48;10.10;1.00
2973;DHT22;1496;51.404;7.232;2024-02-21T15:37:14;10.10;1.00
2973;DHT22;1496;51.404;7.232;2024-02-21T15:39:43;10.00;1.00
2973;DHT22;1496;51.404;7.232;2024-02-21T15:42:09;9.90;1.00
2973;DHT22;1496;51.404;7.232;2024-02-21T15:44:35;9.80;1.00
2973;DHT22;1496;51.404;7.232;2024-02-21T15:47:01;9.80;1.00
2973;DHT22;1496;51.404;7.232;2024-02-21T15:49:27;9.70;1.00
2973;DHT22;1496;51.404;7.232;2024-02-21T15:51:52;9.80;1.00
2973;DHT22;1496;51.404;7.232;2024-02-21T15:54:19;9.80;1.00
2973;DHT22;1496;51.404;7.232;2024-02-21T15:56:45;9.70;1.00
2973;DHT22;1496;51.404;7.232;2024-02-21T15:59:11;9.70;1.00
2973;DHT22;1496;51.404;7.232;2024-02-21T16:01:37;9.60;1.00
2973;DHT22;1496;51.404;7.232;2024-02-21T16:04:04;9.60;1.00
2973;DHT22;1496;51.404;7.232;2024-02-21T16:06:31;9.60;1.00
2973;DHT22;1496;51.404;7.232;2024-02-21T16:12:10;9.70;1.00
2973;DHT22;1496;51.404;7.232;2024-02-21T16:14:36;9.70;1.00
2973;DHT22;1496;51.404;7.232;2024-02-21T16:17:03;9.70;1.00
2973;DHT22;1496;51.404;7.232;2024-02-21T16:19:31;9.80;1.00
2973;DHT22;1496;51.404;7.232;2024-02-21T16:21:58;9.80;1.00
2973;DHT22;1496;51.404;7.232;2024-02-21T16:24:24;9.80;1.00